sensor_id;sensor_type;location;lat;lon;timestamp;pressure;altitude;pressure_sealevel;temperature;humidity
43155;BME280;34212;51.018;13.586;2023-11-21T00:04:10;97163.38;;;9.84;91.43
43155;BME280;34212;51.018;13.586;2023-11-21T00:09:13;97160.69;;;9.84;91.85
43155;BME280;34212;51.018;13.586;2023-11-21T00:14:16;97151.72;;;9.85;91.63
43155;BME280;34212;51.018;13.586;2023-11-21T00:19:19;97150.69;;;9.86;92.37
43155;BME280;34212;51.018;13.586;2023-11-21T00:24:21;97156.66;;;9.88;91.83
43155;BME280;34212;51.018;13.586;2023-11-21T00:29:22;97165.47;;;9.88;91.85
43155;BME280;34212;51.018;13.586;2023-11-21T00:34:25;97166.66;;;9.86;91.24
43155;BME280;34212;51.018;13.586;2023-11-21T00:39:27;97172.59;;;9.81;91.54
43155;BME280;34212;51.018;13.586;2023-11-21T00:44:28;97176.25;;;9.80;91.41
43155;BME280;34212;51.018;13.586;2023-11-21T00:49:30;97171.72;;;9.81;91.89
43155;BME280;34212;51.018;13.586;2023-11-21T00:54:31;97175.69;;;9.85;91.71
43155;BME280;34212;51.018;13.586;2023-11-21T00:59:35;97178.56;;;9.90;92.14
43155;BME280;34212;51.018;13.586;2023-11-21T01:04:37;97179.22;;;9.92;91.59
43155;BME280;34212;51.018;13.586;2023-11-21T01:09:39;97187.22;;;9.92;91.82
43155;BME280;34212;51.018;13.586;2023-11-21T01:14:40;97198.03;;;9.90;91.65
43155;BME280;34212;51.018;13.586;2023-11-21T01:19:42;97198.25;;;9.89;91.12
43155;BME280;34212;51.018;13.586;2023-11-21T01:24:43;97194.75;;;9.88;91.19
43155;BME280;34212;51.018;13.586;2023-11-21T01:29:46;97190.44;;;9.87;91.87
43155;BME280;34212;51.018;13.586;2023-11-21T01:34:49;97197.22;;;9.90;91.56
43155;BME280;34212;51.018;13.586;2023-11-21T01:39:51;97196.63;;;9.88;91.09
43155;BME280;34212;51.018;13.586;2023-11-21T01:44:53;97194.56;;;9.90;90.68
43155;BME280;34212;51.018;13.586;2023-11-21T01:49:56;97194.56;;;9.90;91.17
43155;BME280;34212;51.018;13.586;2023-11-21T01:54:59;97192.91;;;9.89;91.21
43155;BME280;34212;51.018;13.586;2023-11-21T02:00:02;97187.59;;;9.89;90.90
43155;BME280;34212;51.018;13.586;2023-11-21T02:05:18;97190.25;;;9.89;91.40
43155;BME280;34212;51.018;13.586;2023-11-21T02:10:20;97192.91;;;9.89;91.02
43155;BME280;34212;51.018;13.586;2023-11-21T02:15:25;97192.09;;;9.88;90.99
43155;BME280;34212;51.018;13.586;2023-11-21T02:20:30;97200.28;;;9.87;90.86
43155;BME280;34212;51.018;13.586;2023-11-21T02:25:33;97196.13;;;9.84;91.02
43155;BME280;34212;51.018;13.586;2023-11-21T02:30:35;97199.38;;;9.80;90.49
43155;BME280;34212;51.018;13.586;2023-11-21T02:35:38;97192.25;;;9.65;89.99
43155;BME280;34212;51.018;13.586;2023-11-21T02:40:40;97202.59;;;9.54;89.80
43155;BME280;34212;51.018;13.586;2023-11-21T02:45:41;97207.59;;;9.42;89.16
43155;BME280;34212;51.018;13.586;2023-11-21T02:50:43;97205.09;;;9.40;89.45
43155;BME280;34212;51.018;13.586;2023-11-21T02:55:44;97213.94;;;9.41;89.45
43155;BME280;34212;51.018;13.586;2023-11-21T03:00:46;97211.00;;;9.36;88.75
43155;BME280;34212;51.018;13.586;2023-11-21T03:05:48;97221.34;;;9.31;89.00
43155;BME280;34212;51.018;13.586;2023-11-21T03:10:50;97221.72;;;9.28;88.66
43155;BME280;34212;51.018;13.586;2023-11-21T03:15:51;97222.75;;;9.27;89.61
43155;BME280;34212;51.018;13.586;2023-11-21T03:20:53;97225.41;;;9.27;88.93
43155;BME280;34212;51.018;13.586;2023-11-21T03:25:54;97227.88;;;9.28;89.78
43155;BME280;34212;51.018;13.586;2023-11-21T03:30:56;97224.22;;;9.29;89.89
43155;BME280;34212;51.018;13.586;2023-11-21T03:35:58;97224.66;;;9.33;90.03
43155;BME280;34212;51.018;13.586;2023-11-21T03:40:59;97226.31;;;9.34;90.12
43155;BME280;34212;51.018;13.586;2023-11-21T03:46:03;97222.81;;;9.33;89.80
43155;BME280;34212;51.018;13.586;2023-11-21T03:51:05;97232.38;;;9.28;89.85
43155;BME280;34212;51.018;13.586;2023-11-21T03:56:09;97228.81;;;9.20;89.93
43155;BME280;34212;51.018;13.586;2023-11-21T04:01:11;97236.34;;;9.17;89.87
43155;BME280;34212;51.018;13.586;2023-11-21T04:06:12;97241.22;;;9.13;90.07
43155;BME280;34212;51.018;13.586;2023-11-21T04:11:14;97237.16;;;9.17;89.59
43155;BME280;34212;51.018;13.586;2023-11-21T04:16:17;97235.59;;;9.23;90.63
43155;BME280;34212;51.018;13.586;2023-11-21T04:21:29;97236.41;;;9.23;90.14
43155;BME280;34212;51.018;13.586;2023-11-21T04:26:31;97245.88;;;9.26;90.53
43155;BME280;34212;51.018;13.586;2023-11-21T04:31:33;97243.00;;;9.28;90.28
43155;BME280;34212;51.018;13.586;2023-11-21T04:36:35;97252.66;;;9.29;90.12
43155;BME280;34212;51.018;13.586;2023-11-21T04:41:36;97254.97;;;9.32;90.37
43155;BME280;34212;51.018;13.586;2023-11-21T04:46:53;97262.75;;;9.33;90.66
43155;BME280;34212;51.018;13.586;2023-11-21T04:51:55;97270.19;;;9.38;90.61
43155;BME280;34212;51.018;13.586;2023-11-21T04:56:57;97273.47;;;9.40;90.15
43155;BME280;34212;51.018;13.586;2023-11-21T05:01:58;97271.47;;;9.42;90.34
43155;BME280;34212;51.018;13.586;2023-11-21T05:07:01;97271.09;;;9.45;90.96
43155;BME280;34212;51.018;13.586;2023-11-21T05:12:03;97273.75;;;9.45;90.44
43155;BME280;34212;51.018;13.586;2023-11-21T05:17:05;97275.13;;;9.41;90.53
43155;BME280;34212;51.018;13.586;2023-11-21T05:22:07;97287.78;;;9.39;90.48
43155;BME280;34212;51.018;13.586;2023-11-21T05:27:09;97282.63;;;9.37;90.75
43155;BME280;34212;51.018;13.586;2023-11-21T05:32:11;97287.78;;;9.39;90.59
43155;BME280;34212;51.018;13.586;2023-11-21T05:37:13;97291.47;;;9.38;90.81
43155;BME280;34212;51.018;13.586;2023-11-21T05:42:15;97296.16;;;9.36;90.19
43155;BME280;34212;51.018;13.586;2023-11-21T05:47:16;97298.81;;;9.36;90.53
43155;BME280;34212;51.018;13.586;2023-11-21T05:52:19;97298.34;;;9.32;89.95
43155;BME280;34212;51.018;13.586;2023-11-21T05:57:22;97303.59;;;9.25;90.10
43155;BME280;34212;51.018;13.586;2023-11-21T06:02:24;97301.81;;;9.18;89.53
43155;BME280;34212;51.018;13.586;2023-11-21T06:07:25;97311.00;;;9.15;90.13
43155;BME280;34212;51.018;13.586;2023-11-21T06:12:27;97314.31;;;9.17;90.07
43155;BME280;34212;51.018;13.586;2023-11-21T06:17:28;97325.03;;;9.24;89.79
43155;BME280;34212;51.018;13.586;2023-11-21T06:22:30;97328.16;;;9.28;90.65
43155;BME280;34212;51.018;13.586;2023-11-21T06:27:33;97327.78;;;9.31;90.69
43155;BME280;34212;51.018;13.586;2023-11-21T06:32:36;97326.59;;;9.33;90.27
43155;BME280;34212;51.018;13.586;2023-11-21T06:37:38;97333.13;;;9.31;90.15
43155;BME280;34212;51.018;13.586;2023-11-21T06:42:39;97335.16;;;9.29;90.82
43155;BME280;34212;51.018;13.586;2023-11-21T06:47:41;97344.13;;;9.28;90.60
43155;BME280;34212;51.018;13.586;2023-11-21T06:52:43;97344.78;;;9.30;90.87
43155;BME280;34212;51.018;13.586;2023-11-21T06:57:45;97340.56;;;9.35;90.83
43155;BME280;34212;51.018;13.586;2023-11-21T07:02:48;97345.88;;;9.35;90.55
43155;BME280;34212;51.018;13.586;2023-11-21T07:07:50;97348.91;;;9.32;90.80
43155;BME280;34212;51.018;13.586;2023-11-21T07:12:52;97348.47;;;9.29;91.31
43155;BME280;34212;51.018;13.586;2023-11-21T07:17:54;97351.13;;;9.29;91.55
43155;BME280;34212;51.018;13.586;2023-11-21T07:22:56;97356.91;;;9.32;91.50
43155;BME280;34212;51.018;13.586;2023-11-21T07:35:10;97362.69;;;9.36;92.08
43155;BME280;34212;51.018;13.586;2023-11-21T07:41:21;97374.34;;;9.35;91.77
43155;BME280;34212;51.018;13.586;2023-11-21T07:55:21;97383.97;;;9.36;92.38
43155;BME280;34212;51.018;13.586;2023-11-21T08:02:11;97391.59;;;9.39;92.12
43155;BME280;34212;51.018;13.586;2023-11-21T08:08:04;97400.84;;;9.43;92.15
43155;BME280;34212;51.018;13.586;2023-11-21T12:12:25;97600.09;;;7.31;88.82
43155;BME280;34212;51.018;13.586;2023-11-21T15:08:11;97796.28;;;6.11;87.31
43155;BME280;34212;51.018;13.586;2023-11-21T15:13:29;97794.22;;;6.22;86.69
43155;BME280;34212;51.018;13.586;2023-11-21T15:18:32;97797.03;;;6.21;87.09
43155;BME280;34212;51.018;13.586;2023-11-21T15:23:33;97811.63;;;6.25;86.72
43155;BME280;34212;51.018;13.586;2023-11-21T15:28:36;97805.59;;;6.15;86.37
43155;BME280;34212;51.018;13.586;2023-11-21T18:06:57;97998.78;;;5.60;86.47
43155;BME280;34212;51.018;13.586;2023-11-21T18:19:59;98023.63;;;5.49;85.53
43155;BME280;34212;51.018;13.586;2023-11-21T18:26:03;98031.53;;;5.49;85.43
43155;BME280;34212;51.018;13.586;2023-11-21T22:56:10;98328.72;;;3.93;85.56
43155;BME280;34212;51.018;13.586;2023-11-21T23:01:12;98336.63;;;3.93;85.57
43155;BME280;34212;51.018;13.586;2023-11-21T23:06:16;98332.31;;;3.92;85.49
43155;BME280;34212;51.018;13.586;2023-11-21T23:11:18;98338.63;;;4.01;85.77
43155;BME280;34212;51.018;13.586;2023-11-21T23:16:19;98339.94;;;4.06;84.64
43155;BME280;34212;51.018;13.586;2023-11-21T23:21:21;98344.97;;;4.09;85.85
43155;BME280;34212;51.018;13.586;2023-11-21T23:26:23;98356.94;;;4.13;85.15
43155;BME280;34212;51.018;13.586;2023-11-21T23:31:24;98362.94;;;4.15;84.84
43155;BME280;34212;51.018;13.586;2023-11-21T23:36:28;98363.31;;;4.11;84.80
43155;BME280;34212;51.018;13.586;2023-11-21T23:41:29;98368.72;;;4.09;84.70
43155;BME280;34212;51.018;13.586;2023-11-21T23:46:31;98372.34;;;4.08;85.09
43155;BME280;34212;51.018;13.586;2023-11-21T23:51:36;98382.19;;;4.06;84.39
43155;BME280;34212;51.018;13.586;2023-11-21T23:56:37;98387.38;;;3.97;84.55
